createdAt,value
2023-02-15T00:00:07.716Z,62.25
2023-02-15T00:03:31.966Z,51.75
2023-02-15T00:06:37.515Z,54.00
2023-02-15T00:09:41.261Z,60.50
2023-02-15T00:12:45.632Z,61.25
2023-02-15T00:15:49.035Z,55.75
2023-02-15T00:18:54.385Z,46.75
2023-02-15T00:21:59.481Z,49.75
2023-02-15T00:25:03.487Z,46.25
2023-02-15T00:28:06.967Z,42.75
2023-02-15T00:31:14.543Z,44.25
2023-02-15T00:34:20.068Z,41.50
2023-02-15T00:37:25.492Z,48.00
2023-02-15T00:40:29.074Z,44.25
2023-02-15T00:43:34.428Z,47.25
2023-02-15T00:46:38.661Z,43.00
2023-02-15T00:49:42.597Z,41.00
2023-02-15T00:52:47.750Z,43.75
2023-02-15T00:55:51.824Z,42.50
2023-02-15T00:58:55.321Z,43.25
2023-02-15T01:01:59.048Z,40.25
2023-02-15T01:05:02.670Z,43.25
2023-02-15T01:08:08.701Z,40.50
2023-02-15T01:11:15.152Z,43.00
2023-02-15T01:14:19.054Z,43.50
2023-02-15T01:17:22.469Z,46.00
2023-02-15T01:20:29.355Z,46.25
2023-02-15T01:23:35.847Z,43.00
2023-02-15T01:26:39.775Z,40.25
2023-02-15T01:29:43.510Z,38.00
2023-02-15T01:32:47.308Z,40.50
2023-02-15T01:35:50.836Z,35.25
2023-02-15T01:38:56.014Z,47.25
2023-02-15T01:41:59.656Z,47.75
2023-02-15T01:45:08.624Z,45.00
2023-02-15T01:48:22.401Z,41.50
2023-02-15T01:51:31.422Z,41.75
2023-02-15T01:54:39.217Z,44.00
2023-02-15T01:57:45.985Z,40.00
2023-02-15T02:00:50.559Z,41.25
2023-02-15T02:04:02.724Z,42.50
2023-02-15T02:07:09.050Z,38.75
2023-02-15T02:10:18.066Z,43.00
2023-02-15T02:13:22.133Z,48.00
2023-02-15T02:16:35.097Z,23.50
2023-02-15T02:20:13.280Z,42.00
2023-02-15T02:23:47.288Z,39.50
2023-02-15T02:27:18.707Z,42.25
2023-02-15T02:30:45.526Z,42.75
2023-02-15T02:34:00.583Z,46.25
2023-02-15T02:37:17.524Z,41.75
2023-02-15T02:40:28.313Z,36.25
2023-02-15T02:43:37.694Z,37.25
2023-02-15T02:46:51.257Z,37.75
2023-02-15T02:50:02.306Z,37.50
2023-02-15T02:53:05.973Z,41.75
2023-02-15T02:56:25.304Z,35.25
2023-02-15T02:59:35.859Z,35.50
2023-02-15T03:02:47.164Z,34.50
2023-02-15T03:05:57.560Z,40.50
2023-02-15T03:09:15.543Z,40.25
2023-02-15T03:12:22.655Z,36.25
2023-02-15T03:15:51.804Z,43.00
2023-02-15T03:18:59.312Z,39.50
2023-02-15T03:22:10.493Z,43.50
2023-02-15T03:25:20.127Z,38.50
2023-02-15T03:28:33.597Z,39.50
2023-02-15T03:31:44.132Z,39.00
2023-02-15T03:34:48.594Z,35.75
2023-02-15T03:37:59.800Z,30.00
2023-02-15T03:41:14.137Z,33.25
2023-02-15T03:44:26.178Z,34.75
2023-02-15T03:47:34.937Z,34.75
2023-02-15T03:50:57.833Z,33.75
2023-02-15T03:54:05.044Z,34.50
2023-02-15T03:57:29.419Z,37.25
2023-02-15T04:00:55.589Z,43.00
2023-02-15T04:04:05.554Z,40.25
2023-02-15T04:07:11.026Z,44.50
2023-02-15T04:10:33.466Z,51.50
2023-02-15T04:13:38.701Z,51.00
2023-02-15T04:16:41.127Z,41.50
2023-02-15T04:20:02.447Z,44.50
2023-02-15T04:23:25.640Z,50.75
2023-02-15T04:26:30.755Z,39.75
2023-02-15T04:29:34.397Z,48.25
2023-02-15T04:32:39.527Z,44.50
2023-02-15T04:35:44.156Z,41.50
2023-02-15T04:38:47.945Z,45.75
2023-02-15T04:41:52.900Z,52.50
2023-02-15T04:44:56.750Z,70.25
2023-02-15T04:48:00.545Z,62.00
2023-02-15T04:51:07.671Z,47.50
2023-02-15T04:54:11.208Z,42.00
2023-02-15T04:57:16.635Z,48.50
2023-02-15T05:00:21.870Z,51.50
2023-02-15T05:03:25.789Z,46.75
2023-02-15T05:06:29.422Z,43.50
2023-02-15T05:09:33.764Z,43.25
2023-02-15T05:12:41.062Z,43.50
2023-02-15T05:15:49.635Z,37.75
2023-02-15T05:18:53.218Z,52.50
2023-02-15T05:21:57.401Z,67.25
2023-02-15T05:25:18.451Z,94.00
2023-02-15T05:28:24.561Z,105.33
2023-02-15T05:31:28.373Z,110.00
2023-02-15T05:34:32.556Z,71.75
2023-02-15T05:37:36.087Z,50.00
2023-02-15T05:40:39.905Z,42.25
2023-02-15T05:43:44.908Z,45.75
2023-02-15T05:46:48.924Z,43.50
2023-02-15T05:49:52.589Z,49.00
2023-02-15T05:52:56.622Z,62.75
2023-02-15T05:56:04.062Z,52.50
2023-02-15T05:59:11.031Z,64.00
2023-02-15T06:02:15.242Z,53.25
2023-02-15T06:05:19.780Z,56.50
2023-02-15T06:08:23.759Z,62.25
2023-02-15T06:11:27.657Z,60.00
2023-02-15T06:14:32.783Z,57.75
2023-02-15T06:17:36.620Z,49.50
2023-02-15T06:20:42.155Z,62.50
2023-02-15T06:23:45.993Z,61.75
2023-02-15T06:26:50.706Z,59.75
2023-02-15T06:29:56.557Z,48.25
2023-02-15T06:33:04.330Z,70.25
2023-02-15T06:36:08.384Z,76.67
2023-02-15T06:39:11.791Z,74.00
2023-02-15T06:42:15.683Z,85.00
2023-02-15T06:45:21.079Z,70.67
2023-02-15T06:48:25.124Z,134.33
2023-02-15T06:51:28.675Z,75.33
2023-02-15T06:54:32.498Z,70.50
2023-02-15T06:57:36.280Z,121.00
2023-02-15T07:00:42.093Z,88.00
2023-02-15T07:03:46.903Z,119.33
2023-02-15T07:06:53.791Z,186.25
2023-02-15T07:09:57.477Z,166.25
2023-02-15T07:13:04.455Z,171.00
2023-02-15T07:16:12.746Z,209.75
2023-02-15T07:19:18.970Z,196.25
2023-02-15T07:22:25.225Z,167.50
2023-02-15T07:25:29.423Z,130.00
2023-02-15T07:28:34.681Z,160.25
2023-02-15T07:31:44.497Z,155.00
2023-02-15T07:34:48.176Z,150.75
2023-02-15T07:37:54.681Z,184.50
2023-02-15T07:41:04.891Z,129.50
2023-02-15T07:44:14.560Z,155.00
2023-02-15T07:47:19.594Z,131.25
2023-02-15T07:50:26.070Z,122.00
2023-02-15T07:53:31.766Z,106.67
2023-02-15T07:56:37.124Z,141.67
2023-02-15T07:59:40.691Z,140.00
2023-02-15T08:03:14.179Z,122.33
2023-02-15T08:06:23.260Z,100.33
2023-02-15T08:09:27.801Z,86.00
2023-02-15T08:12:31.280Z,67.50
2023-02-15T08:15:35.669Z,78.00
2023-02-15T08:18:41.705Z,62.50
2023-02-15T08:21:47.920Z,62.75
2023-02-15T08:24:52.426Z,62.75
2023-02-15T08:27:56.256Z,58.50
2023-02-15T08:31:07.046Z,42.25
2023-02-15T08:34:17.424Z,52.00
2023-02-15T08:37:22.043Z,49.75
2023-02-15T08:40:26.685Z,48.50
2023-02-15T08:43:30.971Z,48.50
2023-02-15T08:46:37.365Z,57.75
2023-02-15T08:49:45.451Z,60.25
2023-02-15T08:52:50.078Z,59.25
2023-02-15T08:55:58.339Z,56.50
2023-02-15T08:59:02.466Z,57.25
2023-02-15T09:02:07.425Z,56.25
2023-02-15T09:05:13.441Z,52.75
2023-02-15T09:08:17.312Z,87.00
2023-02-15T09:11:25.334Z,56.25
2023-02-15T09:14:29.427Z,50.25
2023-02-15T09:17:33.805Z,55.75
2023-02-15T09:20:40.717Z,56.25
2023-02-15T09:23:45.838Z,56.00
2023-02-15T09:26:50.667Z,49.75
2023-02-15T09:29:54.726Z,49.00
2023-02-15T09:32:58.463Z,50.00
2023-02-15T09:36:03.784Z,46.50
2023-02-15T09:39:11.166Z,44.50
2023-02-15T09:42:51.326Z,41.00
2023-02-15T09:46:14.186Z,45.00
2023-02-15T09:49:27.283Z,48.00
2023-02-15T09:52:55.940Z,56.75
2023-02-15T09:56:09.780Z,37.00
2023-02-15T09:59:26.666Z,52.00
2023-02-15T10:02:44.805Z,45.00
2023-02-15T10:06:02.491Z,52.00
2023-02-15T10:09:29.936Z,41.25
2023-02-15T10:12:59.707Z,39.00
2023-02-15T10:16:21.768Z,50.50
2023-02-15T10:19:43.009Z,39.25
2023-02-15T10:23:04.351Z,34.75
2023-02-15T10:26:21.004Z,32.75
2023-02-15T10:29:36.607Z,23.75
2023-02-15T10:32:58.431Z,27.50
2023-02-15T10:36:14.653Z,28.25
2023-02-15T10:39:28.061Z,41.00
2023-02-15T10:42:43.891Z,29.00
2023-02-15T10:46:03.110Z,29.25
2023-02-15T10:49:26.297Z,36.00
2023-02-15T10:52:43.645Z,37.00
2023-02-15T10:55:59.224Z,43.75
2023-02-15T10:59:25.254Z,42.00
2023-02-15T11:02:44.778Z,29.00
2023-02-15T11:06:06.656Z,30.75
2023-02-15T11:09:16.733Z,32.00
2023-02-15T11:12:26.260Z,29.00
2023-02-15T11:15:37.486Z,22.75
2023-02-15T11:18:46.327Z,37.75
2023-02-15T11:21:55.231Z,40.25
2023-02-15T11:25:02.845Z,28.75
2023-02-15T11:28:15.588Z,27.25
2023-02-15T11:31:24.416Z,36.25
2023-02-15T11:34:36.780Z,35.25
2023-02-15T11:37:50.864Z,29.50
2023-02-15T11:40:59.171Z,24.75
2023-02-15T11:44:10.803Z,33.75
2023-02-15T11:47:16.608Z,35.25
2023-02-15T11:50:25.617Z,22.25
2023-02-15T11:53:34.160Z,21.00
2023-02-15T11:56:38.733Z,27.00
2023-02-15T11:59:48.155Z,34.00
2023-02-15T12:02:57.328Z,30.75
2023-02-15T12:06:06.102Z,22.75
2023-02-15T12:09:23.749Z,57.00
2023-02-15T12:12:32.560Z,99.33
2023-02-15T12:15:37.909Z,28.00
2023-02-15T12:18:46.693Z,31.50
2023-02-15T12:21:55.016Z,31.00
2023-02-15T12:25:02.727Z,31.25
2023-02-15T12:28:26.625Z,43.25
2023-02-15T12:31:39.408Z,42.50
2023-02-15T12:34:47.585Z,38.50
2023-02-15T12:37:57.836Z,32.75
2023-02-15T12:41:04.072Z,35.75
2023-02-15T12:44:17.672Z,35.00
2023-02-15T12:47:29.046Z,35.25
2023-02-15T12:50:34.845Z,36.25
2023-02-15T12:53:40.276Z,37.75
2023-02-15T12:56:43.816Z,26.75
2023-02-15T12:59:52.577Z,33.75
2023-02-15T13:02:58.326Z,34.50
2023-02-15T13:06:08.580Z,44.25
2023-02-15T13:09:19.996Z,43.25
2023-02-15T13:12:27.597Z,34.00
2023-02-15T13:15:38.060Z,37.25
2023-02-15T13:18:46.412Z,32.75
2023-02-15T13:25:18.335Z,36.75
2023-02-15T13:28:26.515Z,27.25
2023-02-15T13:31:33.750Z,26.50
2023-02-15T13:34:40.492Z,28.50
2023-02-15T13:38:13.033Z,32.50
2023-02-15T13:41:22.587Z,33.75
2023-02-15T13:45:04.735Z,34.50
2023-02-15T13:48:20.228Z,29.75
2023-02-15T13:51:53.317Z,30.25
2023-02-15T13:55:23.176Z,36.25
2023-02-15T13:58:57.055Z,27.25
2023-02-15T14:02:14.123Z,27.75
2023-02-15T14:05:33.763Z,25.50
2023-02-15T14:08:51.225Z,34.00
2023-02-15T14:12:11.114Z,29.75
2023-02-15T14:15:28.073Z,30.00
2023-02-15T14:18:42.419Z,38.00
2023-02-15T14:21:56.742Z,52.25
2023-02-15T14:25:23.960Z,51.25
2023-02-15T14:28:45.451Z,47.75
2023-02-15T14:31:54.669Z,43.50
2023-02-15T14:35:01.888Z,58.25
2023-02-15T14:38:16.587Z,60.25
2023-02-15T14:41:27.960Z,58.50
2023-02-15T14:44:41.242Z,41.00
2023-02-15T14:47:47.455Z,38.00
2023-02-15T14:50:51.641Z,60.50
2023-02-15T14:53:56.578Z,50.50
2023-02-15T14:57:34.078Z,43.25
2023-02-15T15:00:43.004Z,49.25
2023-02-15T15:03:57.390Z,58.75
2023-02-15T15:07:06.704Z,63.25
2023-02-15T15:10:37.484Z,53.25
2023-02-15T15:13:56.601Z,49.50
2023-02-15T15:17:04.305Z,63.50
2023-02-15T15:20:17.615Z,65.00
2023-02-15T15:23:45.349Z,50.25
2023-02-15T15:26:51.821Z,77.00
2023-02-15T15:29:56.452Z,74.25
2023-02-15T15:33:15.065Z,62.25
2023-02-15T15:36:57.073Z,66.00
2023-02-15T15:40:52.250Z,76.50
2023-02-15T15:44:25.128Z,65.75
2023-02-15T15:48:06.617Z,53.50
2023-02-15T15:51:22.330Z,51.25
2023-02-15T15:54:28.803Z,62.00
2023-02-15T15:57:37.452Z,66.00
2023-02-15T16:00:48.763Z,63.00
2023-02-15T16:03:57.662Z,56.00
2023-02-15T16:07:22.928Z,63.75
2023-02-15T16:10:29.611Z,58.75
2023-02-15T16:13:33.362Z,64.50
2023-02-15T16:16:37.517Z,59.00
2023-02-15T16:19:44.053Z,60.25
2023-02-15T16:22:55.027Z,49.50
2023-02-15T16:26:11.365Z,55.75
2023-02-15T16:29:17.466Z,58.75
2023-02-15T16:32:25.864Z,70.33
2023-02-15T16:35:31.003Z,57.75
2023-02-15T16:39:11.994Z,60.25
2023-02-15T16:42:19.024Z,58.00
2023-02-15T16:45:27.912Z,73.00
2023-02-15T16:48:35.895Z,55.75
2023-02-15T16:51:45.463Z,73.00
2023-02-15T16:54:55.610Z,56.75
2023-02-15T16:58:05.232Z,65.25
2023-02-15T17:01:12.193Z,86.00
2023-02-15T17:04:30.225Z,69.75
2023-02-15T17:07:34.602Z,85.33
2023-02-15T17:10:43.662Z,109.67
2023-02-15T17:14:15.485Z,109.00
2023-02-15T17:17:24.230Z,77.67
2023-02-15T17:20:35.009Z,122.50
2023-02-15T17:23:55.628Z,138.25
2023-02-15T17:27:05.639Z,96.33
2023-02-15T17:30:18.767Z,73.33
2023-02-15T17:33:30.247Z,96.00
2023-02-15T17:36:34.552Z,80.33
2023-02-15T17:39:38.568Z,71.00
2023-02-15T17:42:46.044Z,75.33
2023-02-15T17:45:52.506Z,88.67
2023-02-15T17:48:57.632Z,69.33
2023-02-15T17:52:03.227Z,79.00
2023-02-15T17:55:33.017Z,90.33
2023-02-15T17:58:40.558Z,82.67
2023-02-15T18:02:06.218Z,134.00
2023-02-15T18:05:32.447Z,73.33
2023-02-15T18:08:54.844Z,100.00
2023-02-15T18:11:59.569Z,90.67
2023-02-15T18:15:05.842Z,95.67
2023-02-15T18:18:13.967Z,99.67
2023-02-15T18:21:19.145Z,63.75
2023-02-15T18:24:27.546Z,85.67
2023-02-15T18:27:33.333Z,113.33
2023-02-15T18:30:43.924Z,82.67
2023-02-15T18:33:50.767Z,73.00
2023-02-15T18:37:00.204Z,79.00
2023-02-15T18:40:05.062Z,69.33
2023-02-15T18:43:12.747Z,123.00
2023-02-15T18:46:18.979Z,75.00
2023-02-15T18:49:23.810Z,71.00
2023-02-15T18:52:36.116Z,69.67
2023-02-15T18:55:40.679Z,118.67
2023-02-15T18:58:46.218Z,120.50
2023-02-15T19:01:52.344Z,149.25
2023-02-15T19:04:55.812Z,84.33
2023-02-15T19:08:03.063Z,84.00
2023-02-15T19:11:07.000Z,94.67
2023-02-15T19:14:25.091Z,84.67
2023-02-15T19:17:31.177Z,109.67
2023-02-15T19:20:39.475Z,131.00
2023-02-15T19:23:43.038Z,74.00
2023-02-15T19:26:47.738Z,59.00
2023-02-15T19:29:51.677Z,94.67
2023-02-15T19:32:57.810Z,97.00
2023-02-15T19:36:03.025Z,81.67
2023-02-15T19:39:38.639Z,68.33
2023-02-15T19:42:43.945Z,72.33
2023-02-15T19:45:52.329Z,69.67
2023-02-15T19:48:57.587Z,104.33
2023-02-15T19:52:01.902Z,99.67
2023-02-15T19:55:07.151Z,154.00
2023-02-15T19:58:13.940Z,139.00
2023-02-15T20:01:18.310Z,68.00
2023-02-15T20:04:24.288Z,71.33
2023-02-15T20:07:29.425Z,65.00
2023-02-15T20:10:33.792Z,65.25
2023-02-15T20:13:37.367Z,67.33
2023-02-15T20:16:42.412Z,55.00
2023-02-15T20:19:47.877Z,59.67
2023-02-15T20:22:53.215Z,64.00
2023-02-15T20:25:59.406Z,66.33
2023-02-15T20:29:03.672Z,106.00
2023-02-15T20:32:07.235Z,73.00
2023-02-15T20:35:16.680Z,64.67
2023-02-15T20:38:23.084Z,66.00
2023-02-15T20:41:44.118Z,65.00
2023-02-15T20:44:48.187Z,60.50
2023-02-15T20:47:53.727Z,59.75
2023-02-15T20:50:59.972Z,66.50
2023-02-15T20:54:09.864Z,90.00
2023-02-15T20:57:14.115Z,84.67
2023-02-15T21:00:21.109Z,66.67
2023-02-15T21:03:30.864Z,65.00
2023-02-15T21:06:36.939Z,56.00
2023-02-15T21:14:27.221Z,111.00
2023-02-15T21:17:30.637Z,131.75
2023-02-15T21:20:51.196Z,94.33
2023-02-15T21:23:56.521Z,90.67
2023-02-15T21:27:04.412Z,74.33
2023-02-15T21:30:16.558Z,62.00
2023-02-15T21:33:23.927Z,64.67
2023-02-15T21:36:29.109Z,66.00
2023-02-15T21:39:37.642Z,79.33
2023-02-15T21:42:59.257Z,119.33
2023-02-15T21:46:30.915Z,66.33
2023-02-15T21:49:34.979Z,70.00
2023-02-15T21:52:38.551Z,103.67
2023-02-15T21:55:44.260Z,65.67
2023-02-15T21:58:49.299Z,102.67
2023-02-15T22:01:53.056Z,63.00
2023-02-15T22:04:57.227Z,60.75
2023-02-15T22:08:01.721Z,68.67
2023-02-15T22:11:12.818Z,66.00
2023-02-15T22:14:36.766Z,68.67
2023-02-15T22:17:40.550Z,65.00
2023-02-15T22:20:44.664Z,61.25
2023-02-15T22:23:48.663Z,59.33
2023-02-15T22:26:54.509Z,63.00
2023-02-15T22:29:58.955Z,63.00
2023-02-15T22:33:04.195Z,71.00
2023-02-15T22:36:22.810Z,70.00
2023-02-15T22:39:27.002Z,63.67
2023-02-15T22:42:32.191Z,60.33
2023-02-15T22:45:36.425Z,61.00
2023-02-15T22:48:40.445Z,66.00
2023-02-15T22:51:44.060Z,76.00
2023-02-15T22:54:48.139Z,96.00
2023-02-15T22:57:56.147Z,76.00
2023-02-15T23:01:00.905Z,76.67
2023-02-15T23:04:05.902Z,78.00
2023-02-15T23:07:16.150Z,64.00
2023-02-15T23:10:22.501Z,85.00
2023-02-15T23:13:33.104Z,97.00
2023-02-15T23:16:37.419Z,73.00
2023-02-15T23:19:41.850Z,79.33
2023-02-15T23:22:46.116Z,79.67
2023-02-15T23:25:50.328Z,76.33
2023-02-15T23:28:57.162Z,88.00
2023-02-15T23:32:01.604Z,75.67
2023-02-15T23:35:15.432Z,83.00
2023-02-15T23:38:21.902Z,84.33
2023-02-15T23:41:27.648Z,80.00
2023-02-15T23:44:34.188Z,91.33
2023-02-15T23:47:55.203Z,78.00
2023-02-15T23:50:59.676Z,77.33
2023-02-15T23:54:03.242Z,85.00
2023-02-15T23:57:07.093Z,89.67
